sensor_id;sensor_type;location;lat;lon;timestamp;temperature;humidity
52209;DHT22;38507;53.132;6.394;2022-11-15T00:00:50;7.80;99.90
52209;DHT22;38507;53.132;6.394;2022-11-15T00:03:17;7.80;99.90
52209;DHT22;38507;53.132;6.394;2022-11-15T00:05:43;7.70;99.90
52209;DHT22;38507;53.132;6.394;2022-11-15T00:08:09;7.70;99.90
52209;DHT22;38507;53.132;6.394;2022-11-15T00:10:36;7.70;99.90
52209;DHT22;38507;53.132;6.394;2022-11-15T00:13:09;7.60;99.90
52209;DHT22;38507;53.132;6.394;2022-11-15T00:15:40;7.60;99.90
52209;DHT22;38507;53.132;6.394;2022-11-15T00:18:11;7.50;99.90
52209;DHT22;38507;53.132;6.394;2022-11-15T00:20:37;7.50;99.90
52209;DHT22;38507;53.132;6.394;2022-11-15T00:23:04;7.40;99.90
52209;DHT22;38507;53.132;6.394;2022-11-15T00:25:30;7.40;99.90
52209;DHT22;38507;53.132;6.394;2022-11-15T00:27:56;7.40;99.90
52209;DHT22;38507;53.132;6.394;2022-11-15T00:30:23;7.40;99.90
52209;DHT22;38507;53.132;6.394;2022-11-15T00:32:49;7.40;99.90
52209;DHT22;38507;53.132;6.394;2022-11-15T00:35:15;7.40;99.90
52209;DHT22;38507;53.132;6.394;2022-11-15T00:37:40;7.40;99.90
52209;DHT22;38507;53.132;6.394;2022-11-15T00:40:07;7.90;99.90
52209;DHT22;38507;53.132;6.394;2022-11-15T00:42:32;7.40;99.90
52209;DHT22;38507;53.132;6.394;2022-11-15T00:44:58;7.40;99.90
52209;DHT22;38507;53.132;6.394;2022-11-15T00:47:23;7.40;99.90
52209;DHT22;38507;53.132;6.394;2022-11-15T00:49:49;7.40;99.90
52209;DHT22;38507;53.132;6.394;2022-11-15T00:52:15;7.70;99.90
52209;DHT22;38507;53.132;6.394;2022-11-15T00:54:40;7.70;99.90
52209;DHT22;38507;53.132;6.394;2022-11-15T00:57:06;7.70;99.90
52209;DHT22;38507;53.132;6.394;2022-11-15T00:59:31;7.40;99.90
52209;DHT22;38507;53.132;6.394;2022-11-15T01:01:57;7.50;99.90
52209;DHT22;38507;53.132;6.394;2022-11-15T01:04:23;7.40;99.90
52209;DHT22;38507;53.132;6.394;2022-11-15T01:06:48;7.50;99.90
52209;DHT22;38507;53.132;6.394;2022-11-15T01:09:14;7.50;99.90
52209;DHT22;38507;53.132;6.394;2022-11-15T01:11:39;7.50;99.90
52209;DHT22;38507;53.132;6.394;2022-11-15T01:14:05;7.50;99.90
52209;DHT22;38507;53.132;6.394;2022-11-15T01:16:31;7.80;99.90
52209;DHT22;38507;53.132;6.394;2022-11-15T01:18:58;8.00;99.90
52209;DHT22;38507;53.132;6.394;2022-11-15T01:21:23;7.40;99.90
52209;DHT22;38507;53.132;6.394;2022-11-15T01:23:53;7.40;99.90
52209;DHT22;38507;53.132;6.394;2022-11-15T01:26:19;7.70;99.90
52209;DHT22;38507;53.132;6.394;2022-11-15T01:28:45;7.40;99.90
52209;DHT22;38507;53.132;6.394;2022-11-15T01:31:16;7.40;99.90
52209;DHT22;38507;53.132;6.394;2022-11-15T01:33:42;7.40;99.90
52209;DHT22;38507;53.132;6.394;2022-11-15T01:36:12;7.40;99.90
52209;DHT22;38507;53.132;6.394;2022-11-15T01:38:38;7.30;99.90
52209;DHT22;38507;53.132;6.394;2022-11-15T01:41:04;7.30;99.90
52209;DHT22;38507;53.132;6.394;2022-11-15T01:43:35;7.30;99.90
52209;DHT22;38507;53.132;6.394;2022-11-15T01:46:06;7.30;99.90
52209;DHT22;38507;53.132;6.394;2022-11-15T01:48:34;7.30;99.90
52209;DHT22;38507;53.132;6.394;2022-11-15T01:51:02;7.30;99.90
52209;DHT22;38507;53.132;6.394;2022-11-15T01:53:32;7.30;99.90
52209;DHT22;38507;53.132;6.394;2022-11-15T01:56:01;7.30;99.90
52209;DHT22;38507;53.132;6.394;2022-11-15T01:58:27;7.30;99.90
52209;DHT22;38507;53.132;6.394;2022-11-15T02:00:53;7.20;99.90
52209;DHT22;38507;53.132;6.394;2022-11-15T02:03:20;7.20;99.90
52209;DHT22;38507;53.132;6.394;2022-11-15T02:05:48;7.20;99.90
52209;DHT22;38507;53.132;6.394;2022-11-15T02:08:14;7.20;99.90
52209;DHT22;38507;53.132;6.394;2022-11-15T02:10:46;7.20;99.90
52209;DHT22;38507;53.132;6.394;2022-11-15T02:13:16;7.20;99.90
52209;DHT22;38507;53.132;6.394;2022-11-15T02:18:52;7.20;99.90
52209;DHT22;38507;53.132;6.394;2022-11-15T02:21:39;7.20;99.90
52209;DHT22;38507;53.132;6.394;2022-11-15T02:29:58;7.20;99.90
52209;DHT22;38507;53.132;6.394;2022-11-15T02:32:44;7.20;99.90
52209;DHT22;38507;53.132;6.394;2022-11-15T02:35:19;7.10;99.90
52209;DHT22;38507;53.132;6.394;2022-11-15T02:37:56;7.20;99.90
52209;DHT22;38507;53.132;6.394;2022-11-15T02:40:31;7.20;99.90
52209;DHT22;38507;53.132;6.394;2022-11-15T02:43:11;7.20;99.90
52209;DHT22;38507;53.132;6.394;2022-11-15T02:46:07;7.20;99.90
52209;DHT22;38507;53.132;6.394;2022-11-15T02:48:35;7.20;99.90
52209;DHT22;38507;53.132;6.394;2022-11-15T02:51:02;7.20;99.90
52209;DHT22;38507;53.132;6.394;2022-11-15T02:53:28;7.10;99.90
52209;DHT22;38507;53.132;6.394;2022-11-15T02:55:55;7.20;99.90
52209;DHT22;38507;53.132;6.394;2022-11-15T03:12:10;7.20;99.90
52209;DHT22;38507;53.132;6.394;2022-11-15T03:17:29;7.20;99.90
52209;DHT22;38507;53.132;6.394;2022-11-15T03:20:06;7.30;99.90
52209;DHT22;38507;53.132;6.394;2022-11-15T03:22:38;7.30;99.90
52209;DHT22;38507;53.132;6.394;2022-11-15T03:25:07;7.20;99.90
52209;DHT22;38507;53.132;6.394;2022-11-15T03:27:41;7.20;99.90
52209;DHT22;38507;53.132;6.394;2022-11-15T03:30:09;7.30;99.90
52209;DHT22;38507;53.132;6.394;2022-11-15T03:32:39;7.20;99.90
52209;DHT22;38507;53.132;6.394;2022-11-15T03:40:05;7.30;99.90
52209;DHT22;38507;53.132;6.394;2022-11-15T03:45:24;7.30;99.90
52209;DHT22;38507;53.132;6.394;2022-11-15T03:48:06;7.30;99.90
52209;DHT22;38507;53.132;6.394;2022-11-15T03:50:33;7.30;99.90
52209;DHT22;38507;53.132;6.394;2022-11-15T03:52:59;7.30;99.90
52209;DHT22;38507;53.132;6.394;2022-11-15T03:55:25;7.40;99.90
52209;DHT22;38507;53.132;6.394;2022-11-15T03:57:54;7.40;99.90
52209;DHT22;38507;53.132;6.394;2022-11-15T04:00:20;7.40;99.90
52209;DHT22;38507;53.132;6.394;2022-11-15T04:02:45;7.40;99.90
52209;DHT22;38507;53.132;6.394;2022-11-15T04:05:11;7.40;99.90
52209;DHT22;38507;53.132;6.394;2022-11-15T04:07:37;7.40;99.90
52209;DHT22;38507;53.132;6.394;2022-11-15T04:10:03;8.10;99.90
52209;DHT22;38507;53.132;6.394;2022-11-15T04:12:30;7.50;99.90
52209;DHT22;38507;53.132;6.394;2022-11-15T04:15:17;7.50;99.90
52209;DHT22;38507;53.132;6.394;2022-11-15T04:17:48;7.50;99.90
52209;DHT22;38507;53.132;6.394;2022-11-15T04:23:10;7.50;99.90
52209;DHT22;38507;53.132;6.394;2022-11-15T04:25:56;7.50;99.90
52209;DHT22;38507;53.132;6.394;2022-11-15T04:28:23;7.60;99.90
52209;DHT22;38507;53.132;6.394;2022-11-15T04:30:49;7.60;99.90
52209;DHT22;38507;53.132;6.394;2022-11-15T04:33:15;7.60;99.90
52209;DHT22;38507;53.132;6.394;2022-11-15T04:35:41;7.70;99.90
52209;DHT22;38507;53.132;6.394;2022-11-15T04:38:09;7.70;99.90
52209;DHT22;38507;53.132;6.394;2022-11-15T04:40:35;7.60;99.90
52209;DHT22;38507;53.132;6.394;2022-11-15T04:43:01;7.70;99.90
52209;DHT22;38507;53.132;6.394;2022-11-15T04:45:27;7.70;99.90
52209;DHT22;38507;53.132;6.394;2022-11-15T04:47:52;8.10;99.90
52209;DHT22;38507;53.132;6.394;2022-11-15T04:50:18;7.70;99.90
52209;DHT22;38507;53.132;6.394;2022-11-15T04:52:53;7.70;99.90
52209;DHT22;38507;53.132;6.394;2022-11-15T04:55:19;7.80;99.90
52209;DHT22;38507;53.132;6.394;2022-11-15T04:57:45;7.80;99.90
52209;DHT22;38507;53.132;6.394;2022-11-15T05:00:13;7.80;99.90
52209;DHT22;38507;53.132;6.394;2022-11-15T05:02:39;7.80;99.90
52209;DHT22;38507;53.132;6.394;2022-11-15T05:05:24;7.80;99.90
52209;DHT22;38507;53.132;6.394;2022-11-15T05:07:50;7.90;99.90
52209;DHT22;38507;53.132;6.394;2022-11-15T05:10:16;7.90;99.90
52209;DHT22;38507;53.132;6.394;2022-11-15T05:12:42;7.90;99.90
52209;DHT22;38507;53.132;6.394;2022-11-15T05:15:08;7.90;99.90
52209;DHT22;38507;53.132;6.394;2022-11-15T05:17:34;8.00;99.90
52209;DHT22;38507;53.132;6.394;2022-11-15T05:19:59;8.00;99.90
52209;DHT22;38507;53.132;6.394;2022-11-15T05:22:25;8.00;99.90
52209;DHT22;38507;53.132;6.394;2022-11-15T05:24:51;8.10;99.90
52209;DHT22;38507;53.132;6.394;2022-11-15T05:27:16;8.50;99.90
52209;DHT22;38507;53.132;6.394;2022-11-15T05:29:42;8.10;99.90
52209;DHT22;38507;53.132;6.394;2022-11-15T05:32:09;8.10;99.90
52209;DHT22;38507;53.132;6.394;2022-11-15T05:34:35;8.20;99.90
52209;DHT22;38507;53.132;6.394;2022-11-15T05:37:01;8.20;99.90
52209;DHT22;38507;53.132;6.394;2022-11-15T05:39:27;8.20;99.90
52209;DHT22;38507;53.132;6.394;2022-11-15T05:42:01;8.30;99.90
52209;DHT22;38507;53.132;6.394;2022-11-15T05:44:28;8.30;99.90
52209;DHT22;38507;53.132;6.394;2022-11-15T05:46:55;8.30;99.90
52209;DHT22;38507;53.132;6.394;2022-11-15T05:49:26;8.40;99.90
52209;DHT22;38507;53.132;6.394;2022-11-15T05:51:54;8.40;99.90
52209;DHT22;38507;53.132;6.394;2022-11-15T05:54:21;8.40;99.90
52209;DHT22;38507;53.132;6.394;2022-11-15T05:56:48;8.40;99.90
52209;DHT22;38507;53.132;6.394;2022-11-15T05:59:14;8.50;99.90
52209;DHT22;38507;53.132;6.394;2022-11-15T06:01:40;8.50;99.90
52209;DHT22;38507;53.132;6.394;2022-11-15T06:04:06;8.50;99.90
52209;DHT22;38507;53.132;6.394;2022-11-15T06:06:32;8.60;99.90
52209;DHT22;38507;53.132;6.394;2022-11-15T06:08:57;8.60;99.90
52209;DHT22;38507;53.132;6.394;2022-11-15T06:11:23;8.60;99.90
52209;DHT22;38507;53.132;6.394;2022-11-15T06:13:49;8.80;99.90
52209;DHT22;38507;53.132;6.394;2022-11-15T06:16:14;8.70;99.90
52209;DHT22;38507;53.132;6.394;2022-11-15T06:18:40;8.80;99.90
52209;DHT22;38507;53.132;6.394;2022-11-15T06:21:06;8.80;99.90
52209;DHT22;38507;53.132;6.394;2022-11-15T06:23:33;8.80;99.90
52209;DHT22;38507;53.132;6.394;2022-11-15T06:25:59;8.80;99.90
52209;DHT22;38507;53.132;6.394;2022-11-15T06:28:29;8.90;99.90
52209;DHT22;38507;53.132;6.394;2022-11-15T06:30:54;9.40;99.90
52209;DHT22;38507;53.132;6.394;2022-11-15T06:33:20;9.30;99.90
52209;DHT22;38507;53.132;6.394;2022-11-15T06:35:46;8.90;99.90
52209;DHT22;38507;53.132;6.394;2022-11-15T06:38:11;9.10;99.90
52209;DHT22;38507;53.132;6.394;2022-11-15T06:40:39;9.50;99.90
52209;DHT22;38507;53.132;6.394;2022-11-15T06:43:06;9.10;99.90
52209;DHT22;38507;53.132;6.394;2022-11-15T06:45:32;9.10;99.90
52209;DHT22;38507;53.132;6.394;2022-11-15T06:47:58;9.10;99.90
52209;DHT22;38507;53.132;6.394;2022-11-15T06:50:24;9.10;99.90
52209;DHT22;38507;53.132;6.394;2022-11-15T06:52:49;9.10;99.90
52209;DHT22;38507;53.132;6.394;2022-11-15T06:55:15;9.50;99.90
52209;DHT22;38507;53.132;6.394;2022-11-15T06:57:48;9.70;99.90
52209;DHT22;38507;53.132;6.394;2022-11-15T07:00:14;9.90;99.90
52209;DHT22;38507;53.132;6.394;2022-11-15T07:02:40;9.30;99.90
52209;DHT22;38507;53.132;6.394;2022-11-15T07:05:06;9.30;99.90
52209;DHT22;38507;53.132;6.394;2022-11-15T07:07:32;9.30;99.90
52209;DHT22;38507;53.132;6.394;2022-11-15T07:09:57;9.30;99.90
52209;DHT22;38507;53.132;6.394;2022-11-15T07:12:23;9.40;99.90
52209;DHT22;38507;53.132;6.394;2022-11-15T07:14:49;9.50;99.90
52209;DHT22;38507;53.132;6.394;2022-11-15T07:17:14;9.40;99.90
52209;DHT22;38507;53.132;6.394;2022-11-15T07:19:40;9.50;99.90
52209;DHT22;38507;53.132;6.394;2022-11-15T07:22:05;9.80;99.90
52209;DHT22;38507;53.132;6.394;2022-11-15T07:24:31;9.80;99.90
52209;DHT22;38507;53.132;6.394;2022-11-15T07:26:57;10.00;99.90
52209;DHT22;38507;53.132;6.394;2022-11-15T07:29:22;9.50;99.90
52209;DHT22;38507;53.132;6.394;2022-11-15T07:31:49;9.60;99.90
52209;DHT22;38507;53.132;6.394;2022-11-15T07:34:16;10.00;99.90
52209;DHT22;38507;53.132;6.394;2022-11-15T07:36:41;9.60;99.90
52209;DHT22;38507;53.132;6.394;2022-11-15T07:39:07;9.80;99.90
52209;DHT22;38507;53.132;6.394;2022-11-15T07:41:33;9.60;99.90
52209;DHT22;38507;53.132;6.394;2022-11-15T07:43:58;9.80;99.90
52209;DHT22;38507;53.132;6.394;2022-11-15T07:46:24;9.70;99.90
52209;DHT22;38507;53.132;6.394;2022-11-15T07:48:50;9.70;99.90
52209;DHT22;38507;53.132;6.394;2022-11-15T07:51:16;10.20;99.90
52209;DHT22;38507;53.132;6.394;2022-11-15T07:53:43;9.80;99.90
52209;DHT22;38507;53.132;6.394;2022-11-15T07:56:09;9.80;99.90
52209;DHT22;38507;53.132;6.394;2022-11-15T07:58:35;9.90;99.90
52209;DHT22;38507;53.132;6.394;2022-11-15T08:01:05;10.30;99.90
52209;DHT22;38507;53.132;6.394;2022-11-15T08:03:31;10.00;99.90
52209;DHT22;38507;53.132;6.394;2022-11-15T08:05:57;10.00;99.90
52209;DHT22;38507;53.132;6.394;2022-11-15T08:08:22;9.90;99.90
52209;DHT22;38507;53.132;6.394;2022-11-15T08:10:48;10.00;99.90
52209;DHT22;38507;53.132;6.394;2022-11-15T08:13:13;10.00;99.90
52209;DHT22;38507;53.132;6.394;2022-11-15T08:15:39;10.10;99.90
52209;DHT22;38507;53.132;6.394;2022-11-15T08:18:12;10.10;99.90
52209;DHT22;38507;53.132;6.394;2022-11-15T08:20:39;10.10;99.90
52209;DHT22;38507;53.132;6.394;2022-11-15T08:23:05;10.90;99.90
52209;DHT22;38507;53.132;6.394;2022-11-15T08:25:32;10.20;99.90
52209;DHT22;38507;53.132;6.394;2022-11-15T08:28:01;10.30;99.90
52209;DHT22;38507;53.132;6.394;2022-11-15T08:30:27;10.30;99.90
52209;DHT22;38507;53.132;6.394;2022-11-15T08:32:55;10.30;99.90
52209;DHT22;38507;53.132;6.394;2022-11-15T08:35:21;10.40;99.90
52209;DHT22;38507;53.132;6.394;2022-11-15T08:37:47;10.40;99.90
52209;DHT22;38507;53.132;6.394;2022-11-15T08:40:13;10.40;99.90
52209;DHT22;38507;53.132;6.394;2022-11-15T08:42:39;10.50;99.90
52209;DHT22;38507;53.132;6.394;2022-11-15T08:45:05;10.50;99.90
52209;DHT22;38507;53.132;6.394;2022-11-15T08:47:31;10.60;99.90
52209;DHT22;38507;53.132;6.394;2022-11-15T08:49:57;10.60;99.90
52209;DHT22;38507;53.132;6.394;2022-11-15T08:52:22;10.60;99.90
52209;DHT22;38507;53.132;6.394;2022-11-15T08:54:48;10.70;99.90
52209;DHT22;38507;53.132;6.394;2022-11-15T08:57:14;10.60;99.90
52209;DHT22;38507;53.132;6.394;2022-11-15T08:59:40;10.60;99.90
52209;DHT22;38507;53.132;6.394;2022-11-15T09:02:06;10.60;99.90
52209;DHT22;38507;53.132;6.394;2022-11-15T09:04:32;11.20;99.90
52209;DHT22;38507;53.132;6.394;2022-11-15T09:06:57;10.70;99.90
52209;DHT22;38507;53.132;6.394;2022-11-15T09:09:23;10.90;99.90
52209;DHT22;38507;53.132;6.394;2022-11-15T09:11:49;10.80;99.90
52209;DHT22;38507;53.132;6.394;2022-11-15T09:14:16;10.80;99.90
52209;DHT22;38507;53.132;6.394;2022-11-15T09:16:41;10.80;99.90
52209;DHT22;38507;53.132;6.394;2022-11-15T09:19:07;11.20;99.90
52209;DHT22;38507;53.132;6.394;2022-11-15T09:21:33;10.90;99.90
52209;DHT22;38507;53.132;6.394;2022-11-15T09:23:58;10.90;99.90
52209;DHT22;38507;53.132;6.394;2022-11-15T09:26:24;11.00;99.90
52209;DHT22;38507;53.132;6.394;2022-11-15T09:28:50;11.00;99.90
52209;DHT22;38507;53.132;6.394;2022-11-15T09:31:16;11.50;99.90
52209;DHT22;38507;53.132;6.394;2022-11-15T09:33:44;11.10;99.90
52209;DHT22;38507;53.132;6.394;2022-11-15T09:36:11;11.10;99.90
52209;DHT22;38507;53.132;6.394;2022-11-15T09:38:37;11.10;99.90
52209;DHT22;38507;53.132;6.394;2022-11-15T09:44:08;11.60;99.90
52209;DHT22;38507;53.132;6.394;2022-11-15T09:46:41;11.30;99.90
52209;DHT22;38507;53.132;6.394;2022-11-15T09:49:13;11.20;99.90
52209;DHT22;38507;53.132;6.394;2022-11-15T09:51:45;11.30;99.90
52209;DHT22;38507;53.132;6.394;2022-11-15T09:54:41;11.30;99.90
52209;DHT22;38507;53.132;6.394;2022-11-15T09:57:54;11.30;99.90
52209;DHT22;38507;53.132;6.394;2022-11-15T10:05:01;11.40;99.90
52209;DHT22;38507;53.132;6.394;2022-11-15T10:09:54;11.50;99.90
52209;DHT22;38507;53.132;6.394;2022-11-15T10:12:22;12.10;99.90
52209;DHT22;38507;53.132;6.394;2022-11-15T10:14:50;11.40;99.90
52209;DHT22;38507;53.132;6.394;2022-11-15T10:20:17;11.50;99.90
52209;DHT22;38507;53.132;6.394;2022-11-15T10:22:48;11.50;99.90
52209;DHT22;38507;53.132;6.394;2022-11-15T10:25:19;11.80;99.90
52209;DHT22;38507;53.132;6.394;2022-11-15T10:27:52;11.90;99.90
52209;DHT22;38507;53.132;6.394;2022-11-15T10:30:18;11.90;99.90
52209;DHT22;38507;53.132;6.394;2022-11-15T10:32:46;11.90;99.90
52209;DHT22;38507;53.132;6.394;2022-11-15T10:35:22;12.00;99.90
52209;DHT22;38507;53.132;6.394;2022-11-15T10:37:48;11.90;99.90
52209;DHT22;38507;53.132;6.394;2022-11-15T10:42:44;11.90;99.90
52209;DHT22;38507;53.132;6.394;2022-11-15T10:47:49;11.90;99.90
52209;DHT22;38507;53.132;6.394;2022-11-15T10:50:31;12.30;99.90
52209;DHT22;38507;53.132;6.394;2022-11-15T10:52:58;12.10;99.90
52209;DHT22;38507;53.132;6.394;2022-11-15T10:55:28;12.10;99.90
52209;DHT22;38507;53.132;6.394;2022-11-15T10:58:03;12.30;99.90
52209;DHT22;38507;53.132;6.394;2022-11-15T11:00:33;12.10;99.90
52209;DHT22;38507;53.132;6.394;2022-11-15T11:03:02;12.20;99.90
52209;DHT22;38507;53.132;6.394;2022-11-15T11:05:35;12.20;99.90
52209;DHT22;38507;53.132;6.394;2022-11-15T11:11:01;12.20;99.90
52209;DHT22;38507;53.132;6.394;2022-11-15T11:13:33;12.60;99.90
52209;DHT22;38507;53.132;6.394;2022-11-15T11:18:58;12.30;99.90
52209;DHT22;38507;53.132;6.394;2022-11-15T11:32:45;12.40;99.90
52209;DHT22;38507;53.132;6.394;2022-11-15T11:40:43;12.60;99.90
52209;DHT22;38507;53.132;6.394;2022-11-15T11:43:27;12.60;99.90
52209;DHT22;38507;53.132;6.394;2022-11-15T11:48:59;12.60;99.90
52209;DHT22;38507;53.132;6.394;2022-11-15T11:51:47;12.60;99.90
52209;DHT22;38507;53.132;6.394;2022-11-15T11:54:22;12.60;99.90
52209;DHT22;38507;53.132;6.394;2022-11-15T11:56:50;12.70;99.90
52209;DHT22;38507;53.132;6.394;2022-11-15T12:01:44;12.60;99.90
52209;DHT22;38507;53.132;6.394;2022-11-15T12:06:53;13.20;99.90
52209;DHT22;38507;53.132;6.394;2022-11-15T12:12:38;12.90;99.90
52209;DHT22;38507;53.132;6.394;2022-11-15T12:15:18;12.90;99.90
52209;DHT22;38507;53.132;6.394;2022-11-15T12:17:45;12.90;99.90
52209;DHT22;38507;53.132;6.394;2022-11-15T12:20:20;13.00;99.90
52209;DHT22;38507;53.132;6.394;2022-11-15T12:22:53;12.80;99.90
52209;DHT22;38507;53.132;6.394;2022-11-15T12:26:11;12.80;99.90
52209;DHT22;38507;53.132;6.394;2022-11-15T12:33:40;13.00;99.90
52209;DHT22;38507;53.132;6.394;2022-11-15T12:38:58;13.10;99.90
52209;DHT22;38507;53.132;6.394;2022-11-15T12:41:26;13.30;99.90
52209;DHT22;38507;53.132;6.394;2022-11-15T12:43:53;13.80;99.90
52209;DHT22;38507;53.132;6.394;2022-11-15T12:52:08;13.50;99.90
52209;DHT22;38507;53.132;6.394;2022-11-15T13:02:42;13.90;99.90
52209;DHT22;38507;53.132;6.394;2022-11-15T13:17:54;13.40;99.90
52209;DHT22;38507;53.132;6.394;2022-11-15T13:20:27;13.40;99.90
52209;DHT22;38507;53.132;6.394;2022-11-15T13:23:14;13.50;99.90
52209;DHT22;38507;53.132;6.394;2022-11-15T13:26:05;13.50;99.90
52209;DHT22;38507;53.132;6.394;2022-11-15T13:28:43;13.50;99.90
52209;DHT22;38507;53.132;6.394;2022-11-15T13:31:25;13.50;99.90
52209;DHT22;38507;53.132;6.394;2022-11-15T13:33:52;13.40;99.90
52209;DHT22;38507;53.132;6.394;2022-11-15T13:36:27;13.40;99.90
52209;DHT22;38507;53.132;6.394;2022-11-15T13:41:51;13.40;99.90
52209;DHT22;38507;53.132;6.394;2022-11-15T13:44:26;13.40;99.90
52209;DHT22;38507;53.132;6.394;2022-11-15T13:47:13;13.80;99.90
52209;DHT22;38507;53.132;6.394;2022-11-15T13:49:40;13.30;99.90
52209;DHT22;38507;53.132;6.394;2022-11-15T13:52:07;13.30;99.90
52209;DHT22;38507;53.132;6.394;2022-11-15T13:57:44;13.30;99.90
52209;DHT22;38507;53.132;6.394;2022-11-15T14:02:51;13.30;99.90
52209;DHT22;38507;53.132;6.394;2022-11-15T14:05:20;13.30;99.90
52209;DHT22;38507;53.132;6.394;2022-11-15T14:07:59;13.30;99.90
52209;DHT22;38507;53.132;6.394;2022-11-15T14:10:35;13.30;99.90
52209;DHT22;38507;53.132;6.394;2022-11-15T14:13:03;13.20;99.90
52209;DHT22;38507;53.132;6.394;2022-11-15T14:15:34;13.30;99.90
52209;DHT22;38507;53.132;6.394;2022-11-15T14:18:01;13.50;99.90
52209;DHT22;38507;53.132;6.394;2022-11-15T14:20:31;13.20;99.90
52209;DHT22;38507;53.132;6.394;2022-11-15T14:23:24;13.10;99.90
52209;DHT22;38507;53.132;6.394;2022-11-15T14:25:54;13.10;99.90
52209;DHT22;38507;53.132;6.394;2022-11-15T14:30:49;13.00;99.90
52209;DHT22;38507;53.132;6.394;2022-11-15T14:33:24;12.90;99.90
52209;DHT22;38507;53.132;6.394;2022-11-15T14:35:51;12.70;99.90
52209;DHT22;38507;53.132;6.394;2022-11-15T14:38:17;12.60;99.90
52209;DHT22;38507;53.132;6.394;2022-11-15T14:40:43;12.70;99.90
52209;DHT22;38507;53.132;6.394;2022-11-15T14:43:10;12.50;99.90
52209;DHT22;38507;53.132;6.394;2022-11-15T14:45:37;12.50;99.90
52209;DHT22;38507;53.132;6.394;2022-11-15T14:48:03;12.40;99.90
52209;DHT22;38507;53.132;6.394;2022-11-15T14:50:29;12.30;99.90
52209;DHT22;38507;53.132;6.394;2022-11-15T14:52:54;12.40;99.90
52209;DHT22;38507;53.132;6.394;2022-11-15T14:55:32;12.20;99.90
52209;DHT22;38507;53.132;6.394;2022-11-15T14:58:05;12.10;99.90
52209;DHT22;38507;53.132;6.394;2022-11-15T15:00:34;12.10;99.90
52209;DHT22;38507;53.132;6.394;2022-11-15T15:03:00;12.00;99.90
52209;DHT22;38507;53.132;6.394;2022-11-15T15:05:37;12.30;99.90
52209;DHT22;38507;53.132;6.394;2022-11-15T15:08:03;11.90;99.90
52209;DHT22;38507;53.132;6.394;2022-11-15T15:10:33;11.80;99.90
52209;DHT22;38507;53.132;6.394;2022-11-15T15:12:59;11.80;99.90
52209;DHT22;38507;53.132;6.394;2022-11-15T15:15:33;11.70;99.90
52209;DHT22;38507;53.132;6.394;2022-11-15T15:18:00;11.70;99.90
52209;DHT22;38507;53.132;6.394;2022-11-15T15:20:25;11.60;99.90
52209;DHT22;38507;53.132;6.394;2022-11-15T15:22:51;11.50;99.90
52209;DHT22;38507;53.132;6.394;2022-11-15T15:25:21;11.50;99.90
52209;DHT22;38507;53.132;6.394;2022-11-15T15:27:47;11.40;99.90
52209;DHT22;38507;53.132;6.394;2022-11-15T15:30:13;11.40;99.90
52209;DHT22;38507;53.132;6.394;2022-11-15T15:32:39;11.30;99.90
52209;DHT22;38507;53.132;6.394;2022-11-15T15:35:04;11.20;99.90
52209;DHT22;38507;53.132;6.394;2022-11-15T15:37:31;11.20;99.90
52209;DHT22;38507;53.132;6.394;2022-11-15T15:39:59;11.20;99.90
52209;DHT22;38507;53.132;6.394;2022-11-15T15:42:24;11.40;99.90
52209;DHT22;38507;53.132;6.394;2022-11-15T15:44:50;11.10;99.90
52209;DHT22;38507;53.132;6.394;2022-11-15T15:47:21;11.50;99.90
52209;DHT22;38507;53.132;6.394;2022-11-15T15:49:48;11.20;99.90
52209;DHT22;38507;53.132;6.394;2022-11-15T15:52:13;11.00;99.90
52209;DHT22;38507;53.132;6.394;2022-11-15T15:54:40;11.00;99.90
52209;DHT22;38507;53.132;6.394;2022-11-15T15:57:07;10.90;99.90
52209;DHT22;38507;53.132;6.394;2022-11-15T15:59:33;11.30;99.90
52209;DHT22;38507;53.132;6.394;2022-11-15T16:01:58;11.20;99.90
52209;DHT22;38507;53.132;6.394;2022-11-15T16:04:24;10.80;99.90
52209;DHT22;38507;53.132;6.394;2022-11-15T16:06:50;10.80;99.90
52209;DHT22;38507;53.132;6.394;2022-11-15T16:09:19;10.80;99.90
52209;DHT22;38507;53.132;6.394;2022-11-15T16:12:05;10.70;99.90
52209;DHT22;38507;53.132;6.394;2022-11-15T16:14:31;10.70;99.90
52209;DHT22;38507;53.132;6.394;2022-11-15T16:16:57;10.70;99.90
52209;DHT22;38507;53.132;6.394;2022-11-15T16:19:23;10.60;99.90
52209;DHT22;38507;53.132;6.394;2022-11-15T16:21:50;10.60;99.90
52209;DHT22;38507;53.132;6.394;2022-11-15T16:24:17;10.50;99.90
52209;DHT22;38507;53.132;6.394;2022-11-15T16:26:43;10.50;99.90
52209;DHT22;38507;53.132;6.394;2022-11-15T16:29:10;10.50;99.90
52209;DHT22;38507;53.132;6.394;2022-11-15T16:31:36;10.50;99.90
52209;DHT22;38507;53.132;6.394;2022-11-15T16:34:01;10.70;99.90
52209;DHT22;38507;53.132;6.394;2022-11-15T16:36:30;11.00;99.90
52209;DHT22;38507;53.132;6.394;2022-11-15T16:38:56;10.40;99.90
52209;DHT22;38507;53.132;6.394;2022-11-15T16:41:22;10.40;99.90
52209;DHT22;38507;53.132;6.394;2022-11-15T16:43:48;10.70;99.90
52209;DHT22;38507;53.132;6.394;2022-11-15T16:46:22;10.40;99.90
52209;DHT22;38507;53.132;6.394;2022-11-15T16:48:49;10.50;99.90
52209;DHT22;38507;53.132;6.394;2022-11-15T16:51:15;10.40;99.90
52209;DHT22;38507;53.132;6.394;2022-11-15T16:53:40;10.40;99.90
52209;DHT22;38507;53.132;6.394;2022-11-15T16:56:25;10.40;99.90
52209;DHT22;38507;53.132;6.394;2022-11-15T16:58:52;10.40;99.90
52209;DHT22;38507;53.132;6.394;2022-11-15T17:01:24;11.00;99.90
52209;DHT22;38507;53.132;6.394;2022-11-15T17:03:50;10.50;99.90
52209;DHT22;38507;53.132;6.394;2022-11-15T17:06:16;10.50;99.90
52209;DHT22;38507;53.132;6.394;2022-11-15T17:08:43;10.50;99.90
52209;DHT22;38507;53.132;6.394;2022-11-15T17:11:10;10.50;99.90
52209;DHT22;38507;53.132;6.394;2022-11-15T17:13:36;10.50;99.90
52209;DHT22;38507;53.132;6.394;2022-11-15T17:16:10;10.50;99.90
52209;DHT22;38507;53.132;6.394;2022-11-15T17:18:36;10.50;99.90
52209;DHT22;38507;53.132;6.394;2022-11-15T17:21:04;10.60;99.90
52209;DHT22;38507;53.132;6.394;2022-11-15T17:23:30;10.60;99.90
52209;DHT22;38507;53.132;6.394;2022-11-15T17:26:00;10.60;99.90
52209;DHT22;38507;53.132;6.394;2022-11-15T17:28:26;11.10;99.90
52209;DHT22;38507;53.132;6.394;2022-11-15T17:30:51;10.60;99.90
52209;DHT22;38507;53.132;6.394;2022-11-15T17:33:18;11.20;99.90
52209;DHT22;38507;53.132;6.394;2022-11-15T17:35:44;10.60;99.90
52209;DHT22;38507;53.132;6.394;2022-11-15T17:38:09;10.80;99.90
52209;DHT22;38507;53.132;6.394;2022-11-15T17:40:35;10.60;99.90
52209;DHT22;38507;53.132;6.394;2022-11-15T17:43:00;10.60;99.90
52209;DHT22;38507;53.132;6.394;2022-11-15T17:45:27;10.70;99.90
52209;DHT22;38507;53.132;6.394;2022-11-15T17:48:01;10.70;99.90
52209;DHT22;38507;53.132;6.394;2022-11-15T17:50:27;10.70;99.90
52209;DHT22;38507;53.132;6.394;2022-11-15T17:52:52;10.70;99.90
52209;DHT22;38507;53.132;6.394;2022-11-15T17:55:19;11.10;99.90
52209;DHT22;38507;53.132;6.394;2022-11-15T17:57:44;10.70;99.90
52209;DHT22;38507;53.132;6.394;2022-11-15T18:00:10;10.70;99.90